Time,TemperatureF,DewpointF,PressureIn,WindDirection,WindDirectionDegrees,WindSpeedMPH,WindSpeedGustMPH,Humidity,HourlyPrecipIn,Conditions,Clouds,dailyrainin,SoftwareType,DateUTC
2013-01-17 00:01:00,26.2,23.7,28.82,SSW,193,0.0,0.0,90,0.00,,---,0.00,VWS V14.01,2013-01-17 08:01:00,
2013-01-17 00:06:00,26.1,23.5,28.82,SSW,193,0.0,0.0,90,0.00,,---,0.00,VWS V14.01,2013-01-17 08:06:00,
2013-01-17 00:11:00,26.1,23.5,28.82,SSW,193,0.0,0.0,90,0.00,,---,0.00,VWS V14.01,2013-01-17 08:11:00,
2013-01-17 00:16:00,26.2,23.7,28.82,SSW,193,0.0,0.0,90,0.00,,---,0.00,VWS V14.01,2013-01-17 08:16:00,
2013-01-17 00:21:00,26.1,23.5,28.82,SSW,193,0.0,0.0,90,0.00,,---,0.00,VWS V14.01,2013-01-17 08:21:00,
2013-01-17 00:26:00,26.2,23.7,28.82,SSW,193,0.0,0.0,90,0.00,,---,0.00,VWS V14.01,2013-01-17 08:26:00,
2013-01-17 00:31:00,26.1,23.5,28.82,SSW,193,0.0,0.0,90,0.00,,---,0.00,VWS V14.01,2013-01-17 08:31:00,
2013-01-17 00:36:00,26.1,23.5,28.82,SSW,193,0.0,0.0,90,0.00,,---,0.00,VWS V14.01,2013-01-17 08:36:00,
2013-01-17 00:41:00,25.9,23.4,28.82,SSW,193,0.0,0.0,90,0.00,,---,0.00,VWS V14.01,2013-01-17 08:41:00,
2013-01-17 00:46:00,25.9,23.4,28.82,SSW,193,0.0,0.0,90,0.00,,---,0.00,VWS V14.01,2013-01-17 08:46:00,
2013-01-17 00:51:00,25.7,23.2,28.82,SSW,193,0.0,0.0,90,0.00,,---,0.00,VWS V14.01,2013-01-17 08:51:00,
2013-01-17 00:56:00,25.5,23.0,28.82,SSW,193,0.0,0.0,90,0.00,,---,0.00,VWS V14.01,2013-01-17 08:56:00,
2013-01-17 01:01:00,25.5,23.0,28.82,SSW,193,0.0,0.0,90,0.00,,---,0.00,VWS V14.01,2013-01-17 09:01:00,
2013-01-17 01:06:00,25.5,23.0,28.82,SSW,193,0.0,0.0,90,0.00,,---,0.00,VWS V14.01,2013-01-17 09:06:00,
2013-01-17 01:11:00,25.3,22.8,28.82,SSW,193,0.0,0.0,90,0.00,,---,0.00,VWS V14.01,2013-01-17 09:11:00,
2013-01-17 01:16:00,25.3,22.8,28.82,SSW,193,0.0,0.0,90,0.00,,---,0.00,VWS V14.01,2013-01-17 09:16:00,
2013-01-17 01:21:00,25.3,22.8,28.82,SSW,193,0.0,0.0,90,0.00,,---,0.00,VWS V14.01,2013-01-17 09:21:00,
2013-01-17 01:26:00,25.3,22.8,28.82,SSW,193,0.0,0.0,90,0.00,,---,0.00,VWS V14.01,2013-01-17 09:26:00,
2013-01-17 01:31:00,25.2,22.6,28.82,SSW,193,0.0,0.0,90,0.00,,---,0.00,VWS V14.01,2013-01-17 09:31:00,
2013-01-17 01:36:00,25.0,22.5,28.82,SSW,193,0.0,0.0,90,0.00,,---,0.00,VWS V14.01,2013-01-17 09:36:00,
2013-01-17 01:41:00,25.0,22.5,28.82,SSW,193,0.0,0.0,90,0.00,,---,0.00,VWS V14.01,2013-01-17 09:41:00,
2013-01-17 01:46:00,25.0,22.5,28.82,SSW,193,0.0,0.0,90,0.00,,---,0.00,VWS V14.01,2013-01-17 09:46:00,
2013-01-17 01:51:00,25.0,22.5,28.82,SSW,193,0.0,0.0,90,0.00,,---,0.00,VWS V14.01,2013-01-17 09:51:00,
2013-01-17 01:56:00,25.0,22.5,28.82,SSW,193,0.0,0.0,90,0.00,,---,0.00,VWS V14.01,2013-01-17 09:56:00,
2013-01-17 02:01:00,25.0,22.5,28.82,SSW,193,0.0,0.0,90,0.00,,---,0.00,VWS V14.01,2013-01-17 10:01:00,
2013-01-17 02:06:00,24.8,22.5,28.82,SSW,193,0.0,0.0,91,0.00,,---,0.00,VWS V14.01,2013-01-17 10:06:00,
2013-01-17 02:11:00,24.8,22.5,28.82,SSW,193,0.0,0.0,91,0.00,,---,0.00,VWS V14.01,2013-01-17 10:11:00,
2013-01-17 02:16:00,24.6,22.1,28.82,SSW,193,0.0,0.0,90,0.00,,---,0.00,VWS V14.01,2013-01-17 10:16:00,
2013-01-17 02:21:00,24.4,22.2,28.82,SSW,193,0.0,0.0,91,0.00,,---,0.00,VWS V14.01,2013-01-17 10:21:00,
2013-01-17 02:26:00,24.6,22.4,28.82,SSW,193,0.0,0.0,91,0.00,,---,0.00,VWS V14.01,2013-01-17 10:26:00,
2013-01-17 02:31:00,24.6,22.4,28.82,SSW,193,0.0,0.0,91,0.00,,---,0.00,VWS V14.01,2013-01-17 10:31:00,
2013-01-17 02:36:00,24.6,22.4,28.82,SSW,193,0.0,0.0,91,0.00,,---,0.00,VWS V14.01,2013-01-17 10:36:00,
2013-01-17 02:41:00,24.3,22.0,28.82,SSW,193,0.0,0.0,91,0.00,,---,0.00,VWS V14.01,2013-01-17 10:41:00,
2013-01-17 02:46:00,24.3,22.0,28.82,SSW,193,0.0,0.0,91,0.00,,---,0.00,VWS V14.01,2013-01-17 10:46:00,
2013-01-17 02:51:00,24.3,22.0,28.82,SSW,193,0.0,0.0,91,0.00,,---,0.00,VWS V14.01,2013-01-17 10:51:00,
2013-01-17 02:56:00,24.1,21.8,28.82,SSW,193,0.0,0.0,91,0.00,,---,0.00,VWS V14.01,2013-01-17 10:56:00,
2013-01-17 03:01:00,24.3,22.0,28.82,SSW,193,0.0,0.0,91,0.00,,---,0.00,VWS V14.01,2013-01-17 11:01:00,
2013-01-17 03:06:00,24.1,21.8,28.82,SSW,193,0.0,0.0,91,0.00,,---,0.00,VWS V14.01,2013-01-17 11:06:00,
2013-01-17 03:11:00,23.9,21.7,28.82,SSW,193,0.0,0.0,91,0.00,,---,0.00,VWS V14.01,2013-01-17 11:11:00,
2013-01-17 03:16:00,23.7,21.2,28.82,SSW,193,0.0,0.0,90,0.00,,---,0.00,VWS V14.01,2013-01-17 11:16:00,
2013-01-17 03:21:00,23.7,21.2,28.82,SSW,193,0.0,0.0,90,0.00,,---,0.00,VWS V14.01,2013-01-17 11:21:00,
2013-01-17 03:26:00,23.5,21.0,28.82,SSW,193,0.0,0.0,90,0.00,,---,0.00,VWS V14.01,2013-01-17 11:26:00,
2013-01-17 03:31:00,23.7,21.5,28.82,SSW,193,0.0,0.0,91,0.00,,---,0.00,VWS V14.01,2013-01-17 11:31:00,
2013-01-17 03:36:00,23.5,21.3,28.82,SSW,193,0.0,0.0,91,0.00,,---,0.00,VWS V14.01,2013-01-17 11:36:00,
2013-01-17 03:41:00,23.9,21.7,28.82,SSW,193,0.0,0.0,91,0.00,,---,0.00,VWS V14.01,2013-01-17 11:41:00,
2013-01-17 03:46:00,23.9,21.7,28.82,SSW,193,0.0,0.0,91,0.00,,---,0.00,VWS V14.01,2013-01-17 11:46:00,
2013-01-17 03:51:00,23.7,21.5,28.82,SSW,193,0.0,0.0,91,0.00,,---,0.00,VWS V14.01,2013-01-17 11:51:00,
2013-01-17 03:56:00,23.5,21.3,28.82,SSW,193,0.0,0.0,91,0.00,,---,0.00,VWS V14.01,2013-01-17 11:56:00,
2013-01-17 04:01:00,23.5,21.3,28.82,SSW,193,0.0,0.0,91,0.00,,---,0.00,VWS V14.01,2013-01-17 12:01:00,
2013-01-17 04:06:00,23.5,21.3,28.82,SSW,193,0.0,0.0,91,0.00,,---,0.00,VWS V14.01,2013-01-17 12:06:00,
2013-01-17 04:11:00,23.5,21.3,28.82,SSW,193,0.0,0.0,91,0.00,,---,0.00,VWS V14.01,2013-01-17 12:11:00,
2013-01-17 04:16:00,23.7,21.5,28.79,SSW,193,0.0,0.0,91,0.00,,---,0.00,VWS V14.01,2013-01-17 12:16:00,
2013-01-17 04:21:00,23.5,21.3,28.79,SSW,193,0.0,0.0,91,0.00,,---,0.00,VWS V14.01,2013-01-17 12:21:00,
2013-01-17 04:26:00,23.5,21.3,28.79,SSW,193,0.0,0.0,91,0.00,,---,0.00,VWS V14.01,2013-01-17 12:26:00,
2013-01-17 04:31:00,23.5,21.3,28.76,SSW,193,0.0,0.0,91,0.00,,---,0.00,VWS V14.01,2013-01-17 12:31:00,
2013-01-17 04:36:00,23.5,21.3,28.76,SSW,193,0.0,0.0,91,0.00,,---,0.00,VWS V14.01,2013-01-17 12:36:00,
2013-01-17 04:41:00,23.5,21.3,28.76,SSW,193,0.0,0.0,91,0.00,,---,0.00,VWS V14.01,2013-01-17 12:41:00,
2013-01-17 04:46:00,23.5,21.3,28.76,SSW,193,0.0,0.0,91,0.00,,---,0.00,VWS V14.01,2013-01-17 12:46:00,
2013-01-17 04:51:00,23.5,21.3,28.76,SSW,193,0.0,0.0,91,0.00,,---,0.00,VWS V14.01,2013-01-17 12:51:00,
2013-01-17 04:56:00,23.5,21.3,28.76,SSW,193,0.0,0.0,91,0.00,,---,0.00,VWS V14.01,2013-01-17 12:56:00,
2013-01-17 05:01:00,23.5,21.3,28.76,SSW,193,0.0,0.0,91,0.00,,---,0.00,VWS V14.01,2013-01-17 13:01:00,
2013-01-17 05:06:00,23.5,21.3,28.76,SSW,193,0.0,0.0,91,0.00,,---,0.00,VWS V14.01,2013-01-17 13:06:00,
2013-01-17 05:11:00,23.5,21.3,28.76,SSW,193,0.0,0.0,91,0.00,,---,0.00,VWS V14.01,2013-01-17 13:11:00,
2013-01-17 05:16:00,23.5,21.3,28.76,SSW,193,0.0,0.0,91,0.00,,---,0.00,VWS V14.01,2013-01-17 13:16:00,
2013-01-17 05:21:00,23.4,21.1,28.76,SSW,193,0.0,0.0,91,0.00,,---,0.00,VWS V14.01,2013-01-17 13:21:00,
2013-01-17 05:26:00,23.4,21.1,28.76,SSW,193,0.0,0.0,91,0.00,,---,0.00,VWS V14.01,2013-01-17 13:26:00,
2013-01-17 05:31:00,23.4,21.1,28.76,SSW,193,0.0,0.0,91,0.00,,---,0.00,VWS V14.01,2013-01-17 13:31:00,
2013-01-17 05:36:00,23.4,21.1,28.76,SSW,193,0.0,0.0,91,0.00,,---,0.00,VWS V14.01,2013-01-17 13:36:00,
2013-01-17 05:41:00,23.5,21.3,28.76,SSW,193,0.0,0.0,91,0.00,,---,0.00,VWS V14.01,2013-01-17 13:41:00,
2013-01-17 05:46:00,23.4,21.1,28.76,SSW,193,0.0,0.0,91,0.00,,---,0.00,VWS V14.01,2013-01-17 13:46:00,
2013-01-17 05:51:00,23.4,21.1,28.76,SSW,193,0.0,0.0,91,0.00,,---,0.00,VWS V14.01,2013-01-17 13:51:00,
2013-01-17 05:56:00,23.4,21.1,28.76,SSW,193,0.0,0.0,91,0.00,,---,0.00,VWS V14.01,2013-01-17 13:56:00,
2013-01-17 06:01:00,23.2,21.0,28.76,SSW,193,0.0,0.0,91,0.00,,---,0.00,VWS V14.01,2013-01-17 14:01:00,
2013-01-17 06:06:00,23.2,21.0,28.76,SSW,193,0.0,0.0,91,0.00,,---,0.00,VWS V14.01,2013-01-17 14:06:00,
2013-01-17 06:11:00,23.2,21.0,28.76,SSW,193,0.0,0.0,91,0.00,,---,0.00,VWS V14.01,2013-01-17 14:11:00,
2013-01-17 06:16:00,23.2,21.0,28.73,SSW,193,0.0,0.0,91,0.00,,---,0.00,VWS V14.01,2013-01-17 14:16:00,
2013-01-17 06:21:00,23.2,21.0,28.73,SSW,193,0.0,0.0,91,0.00,,---,0.00,VWS V14.01,2013-01-17 14:21:00,
2013-01-17 06:26:00,23.2,21.0,28.73,SSW,193,0.0,0.0,91,0.00,,---,0.00,VWS V14.01,2013-01-17 14:26:00,
2013-01-17 06:31:00,23.0,21.0,28.76,SSW,193,0.0,0.0,92,0.00,,---,0.00,VWS V14.01,2013-01-17 14:31:00,
2013-01-17 06:36:00,23.2,21.0,28.76,SSW,193,0.0,0.0,91,0.00,,---,0.00,VWS V14.01,2013-01-17 14:36:00,
2013-01-17 06:41:00,23.0,21.0,28.76,SSW,193,0.0,0.0,92,0.00,,---,0.00,VWS V14.01,2013-01-17 14:41:00,
2013-01-17 06:46:00,23.0,21.0,28.76,SSW,193,0.0,0.0,92,0.00,,---,0.00,VWS V14.01,2013-01-17 14:46:00,
2013-01-17 06:51:00,23.2,21.0,28.76,SSW,193,0.0,0.0,91,0.00,,---,0.00,VWS V14.01,2013-01-17 14:51:00,
2013-01-17 06:56:00,23.4,21.1,28.76,SSW,193,0.0,0.0,91,0.00,,---,0.00,VWS V14.01,2013-01-17 14:56:00,
2013-01-17 07:01:00,23.4,21.1,28.76,SSW,193,0.0,0.0,91,0.00,,---,0.00,VWS V14.01,2013-01-17 15:01:00,
2013-01-17 07:06:00,23.2,21.0,28.76,SSW,193,0.0,0.0,91,0.00,,---,0.00,VWS V14.01,2013-01-17 15:06:00,
2013-01-17 07:11:00,23.2,21.2,28.76,SSW,193,0.0,0.0,92,0.00,,---,0.00,VWS V14.01,2013-01-17 15:11:00,
2013-01-17 07:16:00,23.2,21.2,28.76,SSW,193,0.0,0.0,92,0.00,,---,0.00,VWS V14.01,2013-01-17 15:16:00,
2013-01-17 07:21:00,23.2,21.0,28.76,SSW,193,0.0,0.0,91,0.00,,---,0.00,VWS V14.01,2013-01-17 15:21:00,
2013-01-17 07:26:00,23.2,21.0,28.76,SSW,193,0.0,0.0,91,0.00,,---,0.00,VWS V14.01,2013-01-17 15:26:00,
2013-01-17 07:31:00,23.0,21.0,28.76,SSW,193,0.0,0.0,92,0.00,,---,0.00,VWS V14.01,2013-01-17 15:31:00,
2013-01-17 07:36:00,23.0,21.0,28.76,SSW,193,0.0,0.0,92,0.00,,---,0.00,VWS V14.01,2013-01-17 15:36:00,
2013-01-17 07:41:00,23.0,21.0,28.76,SSW,193,0.0,0.0,92,0.00,,---,0.00,VWS V14.01,2013-01-17 15:41:00,
2013-01-17 07:46:00,23.0,21.0,28.76,SSW,193,0.0,0.0,92,0.00,,---,0.00,VWS V14.01,2013-01-17 15:46:00,
2013-01-17 07:50:00,22.8,20.9,28.76,SSW,193,0.0,0.0,92,0.00,,---,0.00,VWS V14.01,2013-01-17 15:50:00,
2013-01-17 07:55:00,22.8,20.9,28.76,SSW,193,0.0,0.0,92,0.00,,---,0.00,VWS V14.01,2013-01-17 15:55:00,
2013-01-17 08:00:00,23.0,21.0,28.76,SSW,193,0.0,0.0,92,0.00,,---,0.00,VWS V14.01,2013-01-17 16:00:00,
2013-01-17 08:05:00,23.0,21.0,28.76,SSW,193,0.0,0.0,92,0.00,,---,0.00,VWS V14.01,2013-01-17 16:05:00,
2013-01-17 08:10:00,23.4,21.4,28.76,SSW,193,0.0,0.0,92,0.00,,---,0.00,VWS V14.01,2013-01-17 16:10:00,
2013-01-17 08:15:00,23.4,21.4,28.76,SSW,193,0.0,0.0,92,0.00,,---,0.00,VWS V14.01,2013-01-17 16:15:00,
2013-01-17 08:20:00,23.5,21.6,28.76,SSW,193,0.0,0.0,92,0.00,,---,0.00,VWS V14.01,2013-01-17 16:20:00,
2013-01-17 08:25:00,23.5,21.6,28.76,SSW,193,0.0,0.0,92,0.00,,---,0.00,VWS V14.01,2013-01-17 16:25:00,
2013-01-17 08:30:00,23.5,21.6,28.76,SSW,193,0.0,0.0,92,0.00,,---,0.00,VWS V14.01,2013-01-17 16:30:00,
2013-01-17 08:35:00,23.5,21.6,28.76,SSW,193,0.0,0.0,92,0.00,,---,0.00,VWS V14.01,2013-01-17 16:35:00,
2013-01-17 08:40:00,23.9,21.9,28.76,SSW,193,0.0,0.0,92,0.00,,---,0.00,VWS V14.01,2013-01-17 16:40:00,
2013-01-17 08:45:00,24.1,22.1,28.76,SSW,193,0.0,0.0,92,0.00,,---,0.00,VWS V14.01,2013-01-17 16:45:00,
2013-01-17 08:50:00,24.4,22.5,28.76,SSW,193,0.0,0.0,92,0.00,,---,0.00,VWS V14.01,2013-01-17 16:50:00,
2013-01-17 08:55:00,24.6,22.9,28.76,SSW,193,0.0,0.0,93,0.00,,---,0.00,VWS V14.01,2013-01-17 16:55:00,
2013-01-17 09:00:00,25.2,23.2,28.76,SSW,193,0.0,0.0,92,0.00,,---,0.00,VWS V14.01,2013-01-17 17:00:00,
2013-01-17 09:05:00,25.3,23.4,28.76,SSW,193,0.0,0.0,92,0.00,,---,0.00,VWS V14.01,2013-01-17 17:05:00,
2013-01-17 09:10:00,25.7,24.0,28.76,SSW,193,0.0,0.0,93,0.00,,---,0.00,VWS V14.01,2013-01-17 17:10:00,
2013-01-17 09:15:00,26.1,24.3,28.76,SSW,193,0.0,0.0,93,0.00,,---,0.00,VWS V14.01,2013-01-17 17:15:00,
2013-01-17 09:20:00,26.8,24.8,28.76,SSW,193,0.0,0.0,92,0.00,,---,0.00,VWS V14.01,2013-01-17 17:20:00,
2013-01-17 09:25:00,27.3,25.6,28.76,SSW,193,0.0,0.0,93,0.00,,---,0.00,VWS V14.01,2013-01-17 17:25:00,
2013-01-17 09:30:00,27.9,26.1,28.76,SSW,193,0.0,0.0,93,0.00,,---,0.00,VWS V14.01,2013-01-17 17:30:00,
2013-01-17 09:35:00,28.6,26.8,28.76,SSW,193,0.0,0.0,93,0.00,,---,0.00,VWS V14.01,2013-01-17 17:35:00,
2013-01-17 09:40:00,29.1,27.4,28.76,SSW,193,0.0,0.0,93,0.00,,---,0.00,VWS V14.01,2013-01-17 17:40:00,
2013-01-17 09:45:00,29.7,27.9,28.76,SSW,193,0.0,0.0,93,0.00,,---,0.00,VWS V14.01,2013-01-17 17:45:00,
2013-01-17 09:50:00,30.4,28.6,28.76,SSW,193,0.0,0.0,93,0.00,,---,0.00,VWS V14.01,2013-01-17 17:50:00,
2013-01-17 09:55:00,31.1,29.3,28.76,SSW,193,0.0,0.0,93,0.00,,---,0.00,VWS V14.01,2013-01-17 17:55:00,
2013-01-17 10:00:00,31.5,29.7,28.76,SSW,193,0.0,0.0,93,0.00,,---,0.00,VWS V14.01,2013-01-17 18:00:00,
2013-01-17 10:05:00,32.4,30.6,28.76,SSW,193,0.0,0.0,93,0.00,,---,0.00,VWS V14.01,2013-01-17 18:05:00,
2013-01-17 10:10:00,32.9,31.1,28.76,SSW,193,0.0,0.0,93,0.00,,---,0.00,VWS V14.01,2013-01-17 18:10:00,
2013-01-17 10:15:00,33.4,31.6,28.76,SSW,193,0.0,0.0,93,0.00,,---,0.00,VWS V14.01,2013-01-17 18:15:00,
2013-01-17 10:20:00,33.8,32.0,28.76,SSW,193,0.0,0.0,93,0.00,,---,0.00,VWS V14.01,2013-01-17 18:20:00,
2013-01-17 10:25:00,34.2,32.3,28.76,SSW,193,0.0,0.0,93,0.00,,---,0.00,VWS V14.01,2013-01-17 18:25:00,
2013-01-17 10:30:00,35.2,33.4,28.76,SSW,193,0.0,0.0,93,0.00,,---,0.00,VWS V14.01,2013-01-17 18:30:00,
2013-01-17 10:35:00,35.8,34.0,28.76,SSW,193,0.0,0.0,93,0.00,,---,0.00,VWS V14.01,2013-01-17 18:35:00,
2013-01-17 10:40:00,36.3,34.5,28.76,SSW,193,0.0,0.0,93,0.00,,---,0.00,VWS V14.01,2013-01-17 18:40:00,
2013-01-17 10:45:00,36.7,34.8,28.76,SSW,193,0.0,0.0,93,0.00,,---,0.00,VWS V14.01,2013-01-17 18:45:00,
2013-01-17 10:50:00,37.4,35.3,28.76,SSW,193,0.0,0.0,92,0.00,,---,0.00,VWS V14.01,2013-01-17 18:50:00,
2013-01-17 10:55:00,37.6,35.5,28.76,SSW,193,0.0,0.0,92,0.00,,---,0.00,VWS V14.01,2013-01-17 18:55:00,
2013-01-17 11:00:00,38.1,36.0,28.76,SSW,193,0.0,0.0,92,0.00,,---,0.00,VWS V14.01,2013-01-17 19:00:00,
2013-01-17 11:05:00,38.7,36.5,28.76,SSW,193,0.0,0.0,92,0.00,,---,0.00,VWS V14.01,2013-01-17 19:05:00,
2013-01-17 11:10:00,39.4,37.2,28.76,SSW,193,0.0,0.0,92,0.00,,---,0.00,VWS V14.01,2013-01-17 19:10:00,
2013-01-17 11:15:00,39.7,37.6,28.76,SSW,193,0.0,0.0,92,0.00,,---,0.00,VWS V14.01,2013-01-17 19:15:00,
2013-01-17 11:20:00,40.5,38.3,28.76,SSW,193,0.0,0.0,92,0.00,,---,0.00,VWS V14.01,2013-01-17 19:20:00,
2013-01-17 11:25:00,40.8,38.4,28.76,SSW,193,0.0,0.0,91,0.00,,---,0.00,VWS V14.01,2013-01-17 19:25:00,
2013-01-17 11:30:00,40.6,37.9,28.73,SSW,193,0.0,0.0,90,0.00,,---,0.00,VWS V14.01,2013-01-17 19:30:00,
2013-01-17 11:35:00,40.3,36.1,28.73,SSW,193,0.0,0.0,85,0.00,,---,0.00,VWS V14.01,2013-01-17 19:35:00,
2013-01-17 11:40:00,40.5,36.0,28.73,SSW,193,0.0,0.0,84,0.00,,---,0.00,VWS V14.01,2013-01-17 19:40:00,
2013-01-17 11:45:00,40.5,35.7,28.73,SSW,193,0.0,0.0,83,0.00,,---,0.00,VWS V14.01,2013-01-17 19:45:00,